createdAt,value
2022-12-11T00:01:24.722Z,24.95
2022-12-11T00:06:28.258Z,23.13
2022-12-11T00:11:30.355Z,24.20
2022-12-11T00:16:32.520Z,24.40
2022-12-11T00:21:36.748Z,21.85
2022-12-11T00:26:39.209Z,22.05
2022-12-11T00:31:41.477Z,22.40
2022-12-11T00:36:45.069Z,22.95
2022-12-11T00:41:47.126Z,23.60
2022-12-11T00:46:49.249Z,21.08
2022-12-11T00:51:52.803Z,21.70
2022-12-11T00:56:55.984Z,20.85
2022-12-11T01:01:58.174Z,21.27
2022-12-11T01:07:01.749Z,20.23
2022-12-11T01:12:04.194Z,21.02
2022-12-11T01:17:06.346Z,19.67
2022-12-11T01:22:09.892Z,18.00
2022-12-11T01:27:11.976Z,18.45
2022-12-11T01:32:14.049Z,17.85
2022-12-11T01:37:17.532Z,17.85
2022-12-11T01:42:20.989Z,16.40
2022-12-11T01:47:23.114Z,17.45
2022-12-11T01:52:26.705Z,15.05
2022-12-11T01:57:29.498Z,14.73
2022-12-11T02:02:33.208Z,15.80
2022-12-11T02:07:42.799Z,14.52
2022-12-11T02:12:57.199Z,16.00
2022-12-11T02:18:09.064Z,15.00
2022-12-11T02:23:52.881Z,15.88
2022-12-11T02:29:02.748Z,15.48
2022-12-11T02:34:10.427Z,15.20
2022-12-11T02:39:16.055Z,15.40
2022-12-11T02:44:23.592Z,14.55
2022-12-11T02:49:28.188Z,15.30
2022-12-11T02:54:33.170Z,15.27
2022-12-11T02:59:39.695Z,15.40
2022-12-11T03:04:43.405Z,15.60
2022-12-11T03:09:47.705Z,14.55
2022-12-11T03:14:51.513Z,13.82
2022-12-11T03:20:02.288Z,14.38
2022-12-11T03:25:07.969Z,14.38
2022-12-11T03:30:16.187Z,15.70
2022-12-11T03:35:21.459Z,13.60
2022-12-11T03:40:25.458Z,13.38
2022-12-11T03:45:30.536Z,13.57
2022-12-11T03:50:35.166Z,12.18
2022-12-11T03:55:39.731Z,12.85
2022-12-11T04:00:43.269Z,12.90
2022-12-11T04:05:47.716Z,11.57
2022-12-11T04:10:50.686Z,10.98
2022-12-11T04:15:55.333Z,11.75
2022-12-11T04:20:57.543Z,10.82
2022-12-11T04:26:05.017Z,10.43
2022-12-11T04:31:11.898Z,11.00
2022-12-11T04:36:14.681Z,10.65
2022-12-11T04:41:17.884Z,11.57
2022-12-11T04:46:24.330Z,12.00
2022-12-11T04:51:26.864Z,11.75
2022-12-11T04:56:29.014Z,10.70
2022-12-11T05:01:32.514Z,10.40
2022-12-11T05:06:34.616Z,9.50
2022-12-11T05:11:36.849Z,9.85
2022-12-11T05:16:40.333Z,10.25
2022-12-11T05:21:42.415Z,10.90
2022-12-11T05:26:44.470Z,9.75
2022-12-11T05:31:48.004Z,9.98
2022-12-11T05:36:50.133Z,10.88
2022-12-11T05:41:52.166Z,11.43
2022-12-11T05:46:55.814Z,11.05
2022-12-11T05:51:57.988Z,10.00
2022-12-11T05:57:00.054Z,9.00
2022-12-11T06:02:03.712Z,10.23
2022-12-11T06:07:05.885Z,10.75
2022-12-11T06:12:08.083Z,10.48
2022-12-11T06:17:11.645Z,10.02
2022-12-11T06:22:13.742Z,9.40
2022-12-11T06:27:15.881Z,9.52
2022-12-11T06:32:19.446Z,10.40
2022-12-11T06:37:21.558Z,10.07
2022-12-11T06:42:23.649Z,10.55
2022-12-11T06:47:27.483Z,11.25
2022-12-11T06:52:29.680Z,9.77
2022-12-11T06:57:31.725Z,11.43
2022-12-11T07:02:35.275Z,10.55
2022-12-11T07:07:37.458Z,9.63
2022-12-11T07:12:39.603Z,10.27
2022-12-11T07:17:43.178Z,10.07
2022-12-11T07:22:46.780Z,9.32
2022-12-11T07:27:49.572Z,10.27
2022-12-11T07:32:53.120Z,9.50
2022-12-11T07:37:55.287Z,10.73
2022-12-11T07:42:57.434Z,11.10
2022-12-11T07:48:00.978Z,10.38
2022-12-11T07:53:03.084Z,10.73
2022-12-11T07:58:05.178Z,10.23
2022-12-11T08:03:08.689Z,12.63
2022-12-11T08:08:10.799Z,10.55
2022-12-11T08:13:13.039Z,10.18
2022-12-11T08:18:16.553Z,9.48
2022-12-11T08:23:18.950Z,10.10
2022-12-11T08:28:21.125Z,8.93
2022-12-11T08:33:25.700Z,9.80
2022-12-11T08:38:28.052Z,10.38
2022-12-11T08:43:30.092Z,10.32
2022-12-11T08:48:33.901Z,9.30
2022-12-11T08:53:36.060Z,12.10
2022-12-11T08:58:38.238Z,11.52
2022-12-11T09:03:42.461Z,14.30
2022-12-11T09:08:51.956Z,11.32
2022-12-11T09:13:54.835Z,14.40
2022-12-11T09:18:59.460Z,12.07
2022-12-11T09:24:02.278Z,16.95
2022-12-11T09:29:05.471Z,11.82
2022-12-11T09:34:13.676Z,11.80
2022-12-11T09:39:17.062Z,14.98
2022-12-11T09:44:30.231Z,10.93
2022-12-11T09:49:39.404Z,9.93
2022-12-11T09:54:48.086Z,9.85
2022-12-11T10:00:14.578Z,11.07
2022-12-11T10:05:27.781Z,9.18
2022-12-11T10:10:41.764Z,9.38
2022-12-11T10:15:51.975Z,9.65
2022-12-11T10:20:55.655Z,8.85
2022-12-11T10:26:04.679Z,10.15
2022-12-11T10:31:16.026Z,9.98
2022-12-11T10:36:24.112Z,10.48
2022-12-11T10:41:36.947Z,8.55
2022-12-11T10:46:39.104Z,8.27
2022-12-11T10:51:42.689Z,11.13
2022-12-11T10:56:48.208Z,9.55
2022-12-11T11:01:50.873Z,8.77
2022-12-11T11:07:04.151Z,12.65
2022-12-11T11:12:19.404Z,10.63
2022-12-11T11:17:21.763Z,9.45
2022-12-11T11:22:25.401Z,15.02
2022-12-11T11:27:35.413Z,12.32
2022-12-11T11:32:40.560Z,11.88
2022-12-11T11:37:53.357Z,14.95
2022-12-11T11:43:05.164Z,11.50
2022-12-11T11:48:22.257Z,11.80
2022-12-11T11:53:32.124Z,10.93
2022-12-11T11:58:41.797Z,11.18
2022-12-11T12:03:45.192Z,11.60
2022-12-11T12:08:56.225Z,10.68
2022-12-11T12:14:22.730Z,10.30
2022-12-11T12:19:43.539Z,10.75
2022-12-11T12:24:55.248Z,10.27
2022-12-11T12:30:03.497Z,11.18
2022-12-11T12:35:16.170Z,11.25
2022-12-11T12:40:28.985Z,12.07
2022-12-11T12:45:37.168Z,10.90
2022-12-11T12:50:43.164Z,11.73
2022-12-11T12:55:48.051Z,10.25
2022-12-11T13:00:50.288Z,10.02
2022-12-11T13:05:59.309Z,10.75
2022-12-11T13:11:06.311Z,10.45
2022-12-11T13:21:29.721Z,9.15
2022-12-11T13:26:34.492Z,9.70
2022-12-11T13:31:38.827Z,10.40
2022-12-11T13:36:46.295Z,9.00
2022-12-11T13:41:53.493Z,11.38
2022-12-11T13:46:58.806Z,12.73
2022-12-11T13:52:01.632Z,12.90
2022-12-11T13:57:17.439Z,11.38
2022-12-11T14:02:24.010Z,15.63
2022-12-11T14:07:30.531Z,12.10
2022-12-11T14:12:34.184Z,14.13
2022-12-11T14:17:36.410Z,11.18
2022-12-11T14:22:38.517Z,11.88
2022-12-11T14:27:49.036Z,11.73
2022-12-11T14:32:52.808Z,12.15
2022-12-11T14:37:55.527Z,13.95
2022-12-11T14:43:03.062Z,12.65
2022-12-11T14:48:12.342Z,11.30
2022-12-11T14:53:19.420Z,9.90
2022-12-11T14:58:25.482Z,19.80
2022-12-11T15:03:33.816Z,19.33
2022-12-11T15:08:36.366Z,12.20
2022-12-11T15:13:51.448Z,12.10
2022-12-11T15:18:56.214Z,10.82
2022-12-11T15:24:00.575Z,9.63
2022-12-11T15:29:06.145Z,10.48
2022-12-11T15:34:22.284Z,11.57
2022-12-11T15:39:24.564Z,10.03
2022-12-11T15:44:28.138Z,12.68
2022-12-11T15:49:30.215Z,12.02
2022-12-11T15:54:32.310Z,13.95
2022-12-11T15:59:35.903Z,12.05
2022-12-11T16:04:38.006Z,14.75
2022-12-11T16:09:40.170Z,10.48
2022-12-11T16:14:44.428Z,11.70
2022-12-11T16:19:46.666Z,11.27
2022-12-11T16:24:53.027Z,12.52
2022-12-11T16:29:56.630Z,10.82
2022-12-11T16:34:59.396Z,12.25
2022-12-11T16:40:01.540Z,11.18
2022-12-11T16:45:08.484Z,11.88
2022-12-11T16:50:12.331Z,10.57
2022-12-11T16:55:15.274Z,10.88
2022-12-11T17:00:19.278Z,10.80
2022-12-11T17:05:21.397Z,11.43
2022-12-11T17:10:23.539Z,11.32
2022-12-11T17:15:27.026Z,12.32
2022-12-11T17:20:29.131Z,12.90
2022-12-11T17:25:31.208Z,12.23
2022-12-11T17:30:35.128Z,13.48
2022-12-11T17:35:37.389Z,14.23
2022-12-11T17:40:40.961Z,13.25
2022-12-11T17:45:47.082Z,14.38
2022-12-11T17:50:51.185Z,13.53
2022-12-11T17:55:53.416Z,13.57
2022-12-11T18:00:58.224Z,12.75
2022-12-11T18:06:05.643Z,12.93
2022-12-11T18:11:10.040Z,14.43
2022-12-11T18:16:15.904Z,14.73
2022-12-11T18:21:20.620Z,12.88
2022-12-11T18:26:23.135Z,11.88
2022-12-11T18:31:26.808Z,13.40
2022-12-11T18:36:29.502Z,11.23
2022-12-11T18:41:31.695Z,12.68
2022-12-11T18:46:35.235Z,12.85
2022-12-11T18:51:37.377Z,13.95
2022-12-11T18:56:39.525Z,12.35
2022-12-11T19:01:43.122Z,14.15
2022-12-11T19:06:45.247Z,16.58
2022-12-11T19:11:47.503Z,13.45
2022-12-11T19:16:51.295Z,13.95
2022-12-11T19:21:53.397Z,13.68
2022-12-11T19:26:55.529Z,13.52
2022-12-11T19:32:01.755Z,13.73
2022-12-11T19:37:03.919Z,13.00
2022-12-11T19:42:06.551Z,14.02
2022-12-11T19:47:10.153Z,13.93
2022-12-11T19:52:12.310Z,15.90
2022-12-11T19:57:14.478Z,12.00
2022-12-11T20:02:18.062Z,13.77
2022-12-11T20:07:20.210Z,14.57
2022-12-11T20:12:22.337Z,15.15
2022-12-11T20:17:25.932Z,13.98
2022-12-11T20:22:28.179Z,14.00
2022-12-11T20:27:31.149Z,13.90
2022-12-11T20:32:35.194Z,15.60
2022-12-11T20:37:37.430Z,16.73
2022-12-11T20:42:40.117Z,16.05
2022-12-11T20:47:44.220Z,15.45
2022-12-11T20:52:46.326Z,14.35
2022-12-11T20:57:48.434Z,15.70
2022-12-11T21:02:52.265Z,15.63
2022-12-11T21:07:54.995Z,16.17
2022-12-11T21:12:57.170Z,15.55
2022-12-11T21:18:00.823Z,17.95
2022-12-11T21:23:03.067Z,14.23
2022-12-11T21:28:05.917Z,16.77
2022-12-11T21:33:10.394Z,16.73
2022-12-11T21:38:12.491Z,16.70
2022-12-11T21:43:14.596Z,15.45
2022-12-11T21:48:18.118Z,16.17
2022-12-11T21:53:20.213Z,18.95
2022-12-11T21:58:22.374Z,19.85
2022-12-11T22:03:25.895Z,16.23
2022-12-11T22:08:28.091Z,15.98
2022-12-11T22:13:30.698Z,17.95
2022-12-11T22:18:34.286Z,16.65
2022-12-11T22:23:38.436Z,17.23
2022-12-11T22:28:40.557Z,15.63
2022-12-11T22:33:44.191Z,19.02
2022-12-11T22:38:46.594Z,21.25
2022-12-11T22:43:48.737Z,17.23
2022-12-11T22:48:52.902Z,18.08
2022-12-11T22:53:55.065Z,18.05
2022-12-11T22:58:57.463Z,17.05
2022-12-11T23:04:00.974Z,16.83
2022-12-11T23:09:03.384Z,18.67
2022-12-11T23:14:08.508Z,17.55
2022-12-11T23:19:13.139Z,17.40
2022-12-11T23:24:15.475Z,17.42
2022-12-11T23:29:17.599Z,16.52
2022-12-11T23:34:21.217Z,18.08
2022-12-11T23:39:23.292Z,17.60
2022-12-11T23:44:25.352Z,17.70
2022-12-11T23:49:28.895Z,16.25
2022-12-11T23:54:31.078Z,14.57
2022-12-11T23:59:33.217Z,14.80
